createdAt,value
2023-09-20T00:00:19.851Z,998.25
2023-09-20T00:01:19.892Z,998.28
2023-09-20T00:02:19.882Z,998.27
2023-09-20T00:03:19.907Z,998.31
2023-09-20T00:04:19.779Z,998.27
2023-09-20T00:05:19.839Z,998.28
2023-09-20T00:06:19.763Z,998.28
2023-09-20T00:07:19.762Z,998.30
2023-09-20T00:08:19.740Z,998.25
2023-09-20T00:09:19.715Z,998.27
2023-09-20T00:10:19.694Z,998.25
2023-09-20T00:11:19.713Z,998.26
2023-09-20T00:12:19.669Z,998.29
2023-09-20T00:13:19.659Z,998.30
2023-09-20T00:14:19.670Z,998.34
2023-09-20T00:15:19.682Z,998.31
2023-09-20T00:16:19.647Z,998.33
2023-09-20T00:17:19.684Z,998.33
2023-09-20T00:18:19.685Z,998.36
2023-09-20T00:19:19.576Z,998.38
2023-09-20T00:20:19.601Z,998.39
2023-09-20T00:21:19.570Z,998.35
2023-09-20T00:22:19.547Z,998.38
2023-09-20T00:23:19.631Z,998.36
2023-09-20T00:24:19.525Z,998.34
2023-09-20T00:25:19.510Z,998.36
2023-09-20T00:26:19.598Z,998.37
2023-09-20T00:27:19.470Z,998.35
2023-09-20T00:28:19.459Z,998.39
2023-09-20T00:29:19.524Z,998.31
2023-09-20T00:30:19.441Z,998.28
2023-09-20T00:31:19.467Z,998.30
2023-09-20T00:32:19.480Z,998.29
2023-09-20T00:33:19.420Z,998.30
2023-09-20T00:34:19.382Z,998.35
2023-09-20T00:35:19.382Z,998.36
2023-09-20T00:36:19.345Z,998.35
2023-09-20T00:37:19.330Z,998.36
2023-09-20T00:38:19.465Z,998.36
2023-09-20T00:39:19.317Z,998.35
2023-09-20T00:40:19.311Z,998.35
2023-09-20T00:41:19.300Z,998.34
2023-09-20T00:42:19.270Z,998.37
2023-09-20T00:43:19.248Z,998.32
2023-09-20T00:44:19.325Z,998.35
2023-09-20T00:45:19.238Z,998.34
2023-09-20T00:46:19.214Z,998.31
2023-09-20T00:47:19.230Z,998.26
2023-09-20T00:48:19.225Z,998.27
2023-09-20T00:49:19.173Z,998.22
2023-09-20T00:50:19.206Z,998.24
2023-09-20T00:51:19.142Z,998.26
2023-09-20T00:52:19.136Z,998.26
2023-09-20T00:53:19.205Z,998.28
2023-09-20T00:54:19.117Z,998.23
2023-09-20T00:55:19.083Z,998.27
2023-09-20T00:56:19.127Z,998.27
2023-09-20T00:57:19.079Z,998.28
2023-09-20T00:58:19.059Z,998.28
2023-09-20T00:59:19.064Z,998.29
2023-09-20T01:00:19.026Z,998.28
2023-09-20T01:01:19.046Z,998.27
2023-09-20T01:02:19.090Z,998.28
2023-09-20T01:03:19.277Z,998.29
2023-09-20T01:04:19.011Z,998.26
2023-09-20T01:05:18.966Z,998.28
2023-09-20T01:06:19.194Z,998.26
2023-09-20T01:07:18.942Z,998.25
2023-09-20T01:08:19.259Z,998.30
2023-09-20T01:09:18.907Z,998.30
2023-09-20T01:10:18.897Z,998.28
2023-09-20T01:11:18.913Z,998.27
2023-09-20T01:12:18.886Z,998.26
2023-09-20T01:13:18.854Z,998.26
2023-09-20T01:14:18.852Z,998.25
2023-09-20T01:15:18.830Z,998.21
2023-09-20T01:16:18.841Z,998.23
2023-09-20T01:17:18.860Z,998.20
2023-09-20T01:18:18.862Z,998.17
2023-09-20T01:19:18.782Z,998.19
2023-09-20T01:20:18.772Z,998.14
2023-09-20T01:21:18.764Z,998.14
2023-09-20T01:22:18.751Z,998.10
2023-09-20T01:23:18.737Z,998.12
2023-09-20T01:24:18.718Z,998.09
2023-09-20T01:25:18.689Z,998.08
2023-09-20T01:26:18.749Z,998.09
2023-09-20T01:27:18.656Z,998.10
2023-09-20T01:28:18.650Z,998.14
2023-09-20T01:29:18.701Z,998.10
2023-09-20T01:30:18.668Z,998.08
2023-09-20T01:31:18.695Z,998.10
2023-09-20T01:32:18.652Z,998.05
2023-09-20T01:33:18.704Z,998.07
2023-09-20T01:34:18.565Z,998.11
2023-09-20T01:35:18.591Z,998.09
2023-09-20T01:36:18.585Z,998.09
2023-09-20T01:37:18.542Z,998.08
2023-09-20T01:38:18.559Z,998.06
2023-09-20T01:39:18.503Z,998.07
2023-09-20T01:40:18.500Z,998.12
2023-09-20T01:41:18.548Z,998.08
2023-09-20T01:42:18.475Z,998.09
2023-09-20T01:43:18.447Z,998.13
2023-09-20T01:44:18.496Z,998.08
2023-09-20T01:45:18.440Z,998.10
2023-09-20T01:46:18.458Z,998.13
2023-09-20T01:47:18.472Z,998.10
2023-09-20T01:48:18.536Z,998.11
2023-09-20T01:49:18.441Z,998.07
2023-09-20T01:50:18.398Z,998.06
2023-09-20T01:51:18.329Z,998.03
2023-09-20T01:52:18.325Z,998.01
2023-09-20T01:53:18.350Z,998.04
2023-09-20T01:54:18.316Z,998.02
2023-09-20T01:55:18.323Z,998.04
2023-09-20T01:56:18.321Z,998.00
2023-09-20T01:57:18.264Z,998.03
2023-09-20T01:58:18.303Z,998.00
2023-09-20T01:59:18.273Z,998.01
2023-09-20T02:00:18.213Z,997.95
2023-09-20T02:01:18.235Z,997.94
2023-09-20T02:02:18.217Z,997.97
2023-09-20T02:03:19.416Z,997.91
2023-09-20T02:04:18.249Z,997.90
2023-09-20T02:05:18.221Z,997.92
2023-09-20T02:06:18.135Z,997.88
2023-09-20T02:07:18.120Z,997.87
2023-09-20T02:08:18.424Z,997.84
2023-09-20T02:09:18.101Z,997.83
2023-09-20T02:10:18.111Z,997.84
2023-09-20T02:11:18.109Z,997.80
2023-09-20T02:12:18.053Z,997.79
2023-09-20T02:13:18.043Z,997.82
2023-09-20T02:14:18.081Z,997.80
2023-09-20T02:15:18.005Z,997.81
2023-09-20T02:16:18.023Z,997.79
2023-09-20T02:17:18.015Z,997.80
2023-09-20T02:18:18.033Z,997.83
2023-09-20T02:19:17.949Z,997.84
2023-09-20T02:20:17.984Z,997.83
2023-09-20T02:21:17.939Z,997.82
2023-09-20T02:22:17.957Z,997.81
2023-09-20T02:23:17.920Z,997.79
2023-09-20T02:24:17.885Z,997.82
2023-09-20T02:25:17.866Z,997.80
2023-09-20T02:26:17.881Z,997.84
2023-09-20T02:27:17.864Z,997.85
2023-09-20T02:28:17.866Z,997.82
2023-09-20T02:29:17.843Z,997.84
2023-09-20T02:30:17.804Z,997.81
2023-09-20T02:31:17.852Z,997.81
2023-09-20T02:32:17.845Z,997.82
2023-09-20T02:33:17.775Z,997.81
2023-09-20T02:34:17.758Z,997.76
2023-09-20T02:35:17.748Z,997.82
2023-09-20T02:36:17.724Z,997.81
2023-09-20T02:37:17.723Z,997.80
2023-09-20T02:38:17.738Z,997.77
2023-09-20T02:39:17.699Z,997.80
2023-09-20T02:40:17.676Z,997.76
2023-09-20T02:41:17.707Z,997.75
2023-09-20T02:42:17.668Z,997.75
2023-09-20T02:43:17.758Z,997.79
2023-09-20T02:44:17.672Z,997.79
2023-09-20T02:45:17.596Z,997.77
2023-09-20T02:46:17.674Z,997.73
2023-09-20T02:47:17.614Z,997.72
2023-09-20T02:48:17.592Z,997.72
2023-09-20T02:49:17.548Z,997.72
2023-09-20T02:50:17.561Z,997.72
2023-09-20T02:51:17.529Z,997.73
2023-09-20T02:52:17.510Z,997.73
2023-09-20T02:53:17.504Z,997.73
2023-09-20T02:54:17.481Z,997.70
2023-09-20T02:55:17.465Z,997.72
2023-09-20T02:56:17.534Z,997.70
2023-09-20T02:57:17.431Z,997.65
2023-09-20T02:58:17.419Z,997.64
2023-09-20T02:59:17.454Z,997.64
2023-09-20T03:00:17.416Z,997.59
2023-09-20T03:01:17.425Z,997.62
2023-09-20T03:02:17.479Z,997.60
2023-09-20T03:03:17.490Z,997.60
2023-09-20T03:04:17.437Z,997.58
2023-09-20T03:05:17.364Z,997.58
2023-09-20T03:06:17.320Z,997.61
2023-09-20T03:07:17.293Z,997.58
2023-09-20T03:08:17.327Z,997.60
2023-09-20T03:09:17.269Z,997.63
2023-09-20T03:10:17.288Z,997.63
2023-09-20T03:11:17.289Z,997.59
2023-09-20T03:12:17.235Z,997.63
2023-09-20T03:13:17.387Z,997.57
2023-09-20T03:14:17.283Z,997.60
2023-09-20T03:15:17.213Z,997.61
2023-09-20T03:16:17.194Z,997.56
2023-09-20T03:17:17.193Z,997.59
2023-09-20T03:18:17.174Z,997.57
2023-09-20T03:19:17.148Z,997.61
2023-09-20T03:20:17.187Z,997.58
2023-09-20T03:21:17.193Z,997.57
2023-09-20T03:22:17.103Z,997.55
2023-09-20T03:23:17.173Z,997.53
2023-09-20T03:24:17.086Z,997.51
2023-09-20T03:25:17.059Z,997.46
2023-09-20T03:26:17.261Z,997.47
2023-09-20T03:27:17.028Z,997.45
2023-09-20T03:28:17.029Z,997.45
2023-09-20T03:29:17.061Z,997.43
2023-09-20T03:30:16.995Z,997.43
2023-09-20T03:31:18.161Z,997.47
2023-09-20T03:32:17.009Z,997.47
2023-09-20T03:33:17.068Z,997.51
2023-09-20T03:34:16.952Z,997.50
2023-09-20T03:35:16.963Z,997.54
2023-09-20T03:36:17.330Z,997.52
2023-09-20T03:37:16.898Z,997.50
2023-09-20T03:38:16.949Z,997.50
2023-09-20T03:39:16.864Z,997.48
2023-09-20T03:40:16.858Z,997.51
2023-09-20T03:41:16.926Z,997.51
2023-09-20T03:42:16.837Z,997.50
2023-09-20T03:43:16.832Z,997.50
2023-09-20T03:44:16.867Z,997.44
2023-09-20T03:45:16.800Z,997.44
2023-09-20T03:46:16.859Z,997.42
2023-09-20T03:47:16.789Z,997.43
2023-09-20T03:48:16.882Z,997.42
2023-09-20T03:49:16.731Z,997.41
2023-09-20T03:50:16.777Z,997.37
2023-09-20T03:51:16.795Z,997.40
2023-09-20T03:52:16.707Z,997.40
2023-09-20T03:53:18.210Z,997.39
2023-09-20T03:54:16.666Z,997.39
2023-09-20T03:55:16.646Z,997.36
2023-09-20T03:56:16.666Z,997.41
2023-09-20T03:57:16.636Z,997.42
2023-09-20T03:58:16.619Z,997.43
2023-09-20T03:59:16.657Z,997.42
2023-09-20T04:00:16.593Z,997.42
2023-09-20T04:01:16.678Z,997.42
2023-09-20T04:02:16.649Z,997.40
2023-09-20T04:03:16.629Z,997.37
2023-09-20T04:04:16.577Z,997.40
2023-09-20T04:05:26.752Z,997.39
2023-09-20T04:06:17.522Z,997.36
2023-09-20T04:07:16.483Z,997.35
2023-09-20T04:08:16.499Z,997.34
2023-09-20T04:09:16.462Z,997.32
2023-09-20T04:10:16.490Z,997.32
2023-09-20T04:11:16.517Z,997.36
2023-09-20T04:12:16.457Z,997.33
2023-09-20T04:13:16.557Z,997.35
2023-09-20T04:14:16.497Z,997.31
2023-09-20T04:15:16.755Z,997.33
2023-09-20T04:16:16.462Z,997.30
2023-09-20T04:17:16.414Z,997.33
2023-09-20T04:18:16.408Z,997.29
2023-09-20T04:19:16.315Z,997.26
2023-09-20T04:20:16.424Z,997.26
2023-09-20T04:21:16.301Z,997.31
2023-09-20T04:22:16.290Z,997.33
2023-09-20T04:23:16.329Z,997.31
2023-09-20T04:24:16.258Z,997.34
2023-09-20T04:25:16.259Z,997.30
2023-09-20T04:26:16.270Z,997.28
2023-09-20T04:27:16.210Z,997.28
2023-09-20T04:28:16.200Z,997.28
2023-09-20T04:29:16.245Z,997.25
2023-09-20T04:30:16.190Z,997.30
2023-09-20T04:31:16.222Z,997.26
2023-09-20T04:32:16.174Z,997.30
2023-09-20T04:33:16.197Z,997.30
2023-09-20T04:34:16.136Z,997.27
2023-09-20T04:35:16.143Z,997.27
2023-09-20T04:36:16.102Z,997.23
2023-09-20T04:37:16.077Z,997.29
2023-09-20T04:38:16.128Z,997.25
2023-09-20T04:39:16.069Z,997.28
2023-09-20T04:40:16.041Z,997.30
2023-09-20T04:41:16.062Z,997.32
2023-09-20T04:42:16.025Z,997.31
2023-09-20T04:43:16.043Z,997.35
2023-09-20T04:44:16.014Z,997.35
2023-09-20T04:45:16.103Z,997.34
2023-09-20T04:46:16.004Z,997.33
2023-09-20T04:47:16.016Z,997.32
2023-09-20T04:48:16.921Z,997.27
2023-09-20T04:49:15.943Z,997.27
2023-09-20T04:50:15.972Z,997.23
2023-09-20T04:51:15.897Z,997.30
2023-09-20T04:52:15.882Z,997.25
2023-09-20T04:53:15.911Z,997.24
2023-09-20T04:54:15.865Z,997.24
2023-09-20T04:55:15.847Z,997.22
2023-09-20T04:56:15.882Z,997.22
2023-09-20T04:57:15.822Z,997.23
2023-09-20T04:58:15.806Z,997.26
2023-09-20T04:59:15.819Z,997.25
2023-09-20T05:00:15.772Z,997.32
2023-09-20T05:01:15.837Z,997.33
2023-09-20T05:02:16.150Z,997.30
2023-09-20T05:03:15.887Z,997.33
2023-09-20T05:04:15.786Z,997.38
2023-09-20T05:05:15.751Z,997.32
2023-09-20T05:06:15.701Z,997.28
2023-09-20T05:07:15.692Z,997.29
2023-09-20T05:08:15.702Z,997.32
2023-09-20T05:09:15.652Z,997.27
2023-09-20T05:10:15.651Z,997.34
2023-09-20T05:11:15.655Z,997.33
2023-09-20T05:12:15.625Z,997.32
2023-09-20T05:13:15.603Z,997.34
2023-09-20T05:14:15.735Z,997.28
2023-09-20T05:15:15.580Z,997.31
2023-09-20T05:16:15.592Z,997.30
2023-09-20T05:17:15.647Z,997.31
2023-09-20T05:18:15.535Z,997.29
2023-09-20T05:19:15.528Z,997.31
2023-09-20T05:20:15.539Z,997.29
2023-09-20T05:21:15.507Z,997.25
2023-09-20T05:22:15.482Z,997.29
2023-09-20T05:23:15.714Z,997.28
2023-09-20T05:24:15.441Z,997.27
2023-09-20T05:25:15.431Z,997.25
2023-09-20T05:26:15.499Z,997.25
2023-09-20T05:27:15.410Z,997.23
2023-09-20T05:28:15.388Z,997.21
2023-09-20T05:29:15.422Z,997.22
2023-09-20T05:30:15.361Z,997.19
2023-09-20T05:31:15.407Z,997.14
2023-09-20T05:32:15.376Z,997.15
2023-09-20T05:33:15.350Z,997.15
2023-09-20T05:34:15.315Z,997.15
2023-09-20T05:35:15.365Z,997.12
2023-09-20T05:36:15.293Z,997.07
2023-09-20T05:37:15.274Z,997.09
2023-09-20T05:38:15.312Z,997.08
2023-09-20T05:39:15.244Z,997.08
2023-09-20T05:40:15.234Z,997.04
2023-09-20T05:41:15.256Z,997.06
2023-09-20T05:42:15.231Z,997.04
2023-09-20T05:43:15.212Z,997.05
2023-09-20T05:44:15.192Z,997.05
2023-09-20T05:45:15.259Z,997.04
2023-09-20T05:46:15.197Z,997.03
2023-09-20T05:47:15.166Z,997.05
2023-09-20T05:48:15.188Z,997.07
2023-09-20T05:49:15.184Z,997.05
2023-09-20T05:50:15.208Z,997.07
2023-09-20T05:51:15.081Z,997.08
2023-09-20T05:52:15.069Z,997.02
2023-09-20T05:53:15.136Z,997.00
2023-09-20T05:54:15.055Z,997.03
2023-09-20T05:55:15.038Z,997.09
2023-09-20T05:56:15.041Z,997.08
2023-09-20T05:57:15.029Z,997.11
2023-09-20T05:58:15.022Z,997.11
2023-09-20T05:59:15.042Z,997.05
2023-09-20T06:00:14.963Z,997.07
2023-09-20T06:01:15.005Z,997.05
2023-09-20T06:02:14.974Z,997.05
2023-09-20T06:03:14.991Z,997.02
2023-09-20T06:04:15.091Z,997.07
2023-09-20T06:05:14.918Z,997.07
2023-09-20T06:06:14.886Z,997.11
2023-09-20T06:07:14.864Z,997.08
2023-09-20T06:08:14.880Z,997.12
2023-09-20T06:09:14.857Z,997.12
2023-09-20T06:10:14.830Z,997.15
2023-09-20T06:11:14.887Z,997.08
2023-09-20T06:12:14.791Z,997.11
2023-09-20T06:13:14.806Z,997.11
2023-09-20T06:14:14.814Z,997.15
2023-09-20T06:15:14.789Z,997.11
2023-09-20T06:16:14.778Z,997.08
2023-09-20T06:17:14.795Z,997.07
2023-09-20T06:18:14.779Z,997.06
2023-09-20T06:19:15.302Z,997.02
2023-09-20T06:20:14.759Z,996.96
2023-09-20T06:21:14.674Z,996.98
2023-09-20T06:22:14.678Z,996.96
2023-09-20T06:23:14.682Z,996.96
2023-09-20T06:24:14.633Z,996.98
2023-09-20T06:25:14.627Z,996.93
2023-09-20T06:26:14.680Z,996.97
2023-09-20T06:27:14.613Z,996.94
2023-09-20T06:28:14.586Z,996.93
2023-09-20T06:29:14.580Z,996.96
2023-09-20T06:30:14.551Z,996.92
2023-09-20T06:31:14.593Z,996.92
2023-09-20T06:32:14.572Z,996.94
2023-09-20T06:33:14.577Z,996.96
2023-09-20T06:34:14.569Z,996.98
2023-09-20T06:35:14.560Z,997.01
2023-09-20T06:36:14.491Z,997.05
2023-09-20T06:37:14.458Z,997.05
2023-09-20T06:38:14.485Z,997.03
2023-09-20T06:39:14.428Z,997.02
2023-09-20T06:40:14.426Z,997.06
2023-09-20T06:41:14.466Z,997.02
2023-09-20T06:42:14.386Z,997.00
2023-09-20T06:43:14.382Z,997.00
2023-09-20T06:44:14.398Z,996.99
2023-09-20T06:45:14.352Z,996.97
2023-09-20T06:46:14.385Z,996.99
2023-09-20T06:47:14.346Z,996.96
2023-09-20T06:48:14.363Z,996.94
2023-09-20T06:49:14.298Z,996.98
2023-09-20T06:50:14.365Z,996.96
2023-09-20T06:51:14.286Z,996.94
2023-09-20T06:52:14.249Z,996.99
2023-09-20T06:53:14.277Z,996.98
2023-09-20T06:54:14.226Z,996.99
2023-09-20T06:55:14.240Z,996.98
2023-09-20T06:56:14.279Z,996.97
2023-09-20T06:57:14.185Z,996.97
2023-09-20T06:58:20.613Z,996.90
2023-09-20T06:59:15.216Z,996.90
2023-09-20T07:00:14.161Z,996.90
2023-09-20T07:01:14.165Z,996.86
2023-09-20T07:02:14.141Z,996.86
2023-09-20T07:03:14.132Z,996.90
2023-09-20T07:04:14.146Z,996.90
2023-09-20T07:05:14.130Z,996.85
2023-09-20T07:06:14.061Z,996.92
2023-09-20T07:07:14.064Z,996.89
2023-09-20T07:08:14.115Z,996.86
2023-09-20T07:09:14.042Z,996.90
2023-09-20T07:10:14.006Z,996.92
2023-09-20T07:11:14.014Z,996.94
2023-09-20T07:12:13.988Z,996.96
2023-09-20T07:13:13.970Z,997.00
2023-09-20T07:14:14.008Z,997.03
2023-09-20T07:15:13.948Z,997.00
2023-09-20T07:16:14.009Z,996.99
2023-09-20T07:17:13.960Z,996.96
2023-09-20T07:18:14.407Z,996.97
2023-09-20T07:19:13.908Z,996.94
2023-09-20T07:20:13.920Z,996.96
2023-09-20T07:21:13.863Z,996.97
2023-09-20T07:22:13.841Z,996.96
2023-09-20T07:23:14.340Z,996.99
2023-09-20T07:24:13.886Z,996.95
2023-09-20T07:25:13.807Z,997.01
2023-09-20T07:26:13.811Z,997.01
2023-09-20T07:27:13.778Z,997.01
2023-09-20T07:28:13.775Z,997.03
2023-09-20T07:29:13.789Z,997.00
2023-09-20T07:30:15.307Z,996.97
2023-09-20T07:31:13.780Z,997.04
2023-09-20T07:32:13.772Z,997.02
2023-09-20T07:33:14.634Z,997.00
2023-09-20T07:34:13.786Z,996.98
2023-09-20T07:35:13.688Z,996.96
2023-09-20T07:36:15.308Z,996.93
2023-09-20T07:37:13.661Z,996.91
2023-09-20T07:38:13.709Z,996.89
2023-09-20T07:39:13.658Z,996.88
2023-09-20T07:40:13.598Z,996.89
2023-09-20T07:41:13.764Z,996.90
2023-09-20T07:42:13.587Z,996.91
2023-09-20T07:43:23.015Z,996.94
2023-09-20T07:44:14.565Z,996.94
2023-09-20T07:45:13.533Z,996.93
2023-09-20T07:46:13.573Z,996.93
2023-09-20T07:47:13.575Z,996.93
2023-09-20T07:48:13.611Z,996.96
2023-09-20T07:49:13.479Z,996.98
2023-09-20T07:50:13.495Z,997.00
2023-09-20T07:51:16.329Z,996.96
2023-09-20T07:52:13.492Z,996.98
2023-09-20T07:53:13.510Z,996.94
2023-09-20T07:54:13.410Z,996.99
2023-09-20T07:55:13.418Z,997.03
2023-09-20T07:56:13.729Z,996.98
2023-09-20T07:57:13.374Z,997.04
2023-09-20T07:58:13.364Z,997.04
2023-09-20T07:59:13.435Z,997.07
2023-09-20T08:00:13.338Z,997.05
2023-09-20T08:01:13.345Z,997.03
2023-09-20T08:02:13.396Z,997.03
2023-09-20T08:03:13.380Z,997.01
2023-09-20T08:04:13.289Z,997.02
2023-09-20T08:05:13.349Z,997.06
2023-09-20T08:06:13.272Z,997.00
2023-09-20T08:07:13.238Z,997.01
2023-09-20T08:08:13.238Z,997.02
2023-09-20T08:09:13.208Z,997.02
2023-09-20T08:10:13.213Z,997.03
2023-09-20T08:11:14.574Z,996.99
2023-09-20T08:12:13.403Z,997.02
2023-09-20T08:13:13.155Z,997.01
2023-09-20T08:14:13.186Z,997.02
2023-09-20T08:15:13.161Z,997.02
2023-09-20T08:16:13.217Z,997.03
2023-09-20T08:17:13.204Z,997.00
2023-09-20T08:18:13.298Z,996.99
2023-09-20T08:19:13.118Z,997.02
2023-09-20T08:20:13.106Z,996.99
2023-09-20T08:21:13.054Z,997.04
2023-09-20T08:22:13.036Z,997.02
2023-09-20T08:23:13.037Z,997.02
2023-09-20T08:24:13.096Z,997.02
2023-09-20T08:25:13.001Z,997.01
2023-09-20T08:26:13.001Z,996.98
2023-09-20T08:27:12.975Z,996.99
2023-09-20T08:28:12.962Z,996.98
2023-09-20T08:29:13.022Z,997.00
2023-09-20T08:30:12.933Z,996.97
2023-09-20T08:31:13.055Z,996.96
2023-09-20T08:32:12.952Z,996.97
2023-09-20T08:33:13.089Z,996.99
2023-09-20T08:34:12.891Z,996.96
2023-09-20T08:35:12.874Z,996.97
2023-09-20T08:36:12.848Z,996.94
2023-09-20T08:37:12.839Z,996.95
2023-09-20T08:38:12.869Z,996.95
2023-09-20T08:39:23.778Z,996.99
2023-09-20T08:40:13.794Z,997.00
2023-09-20T08:41:12.852Z,997.01
2023-09-20T08:42:12.764Z,996.93
2023-09-20T08:43:12.774Z,996.89
2023-09-20T08:44:12.760Z,996.89
2023-09-20T08:45:12.727Z,996.89
2023-09-20T08:46:12.739Z,996.88
2023-09-20T08:47:12.734Z,996.89
2023-09-20T08:48:12.777Z,996.88
2023-09-20T08:49:12.681Z,996.86
2023-09-20T08:50:12.802Z,996.87
2023-09-20T08:51:12.856Z,996.86
2023-09-20T08:52:12.644Z,996.87
2023-09-20T08:53:12.745Z,996.90
2023-09-20T08:54:12.631Z,996.90
2023-09-20T08:55:12.596Z,996.90
2023-09-20T08:56:12.595Z,996.89
2023-09-20T08:57:13.988Z,996.89
2023-09-20T08:58:12.545Z,996.84
2023-09-20T08:59:12.620Z,996.81
2023-09-20T09:00:12.524Z,996.79
2023-09-20T09:01:12.521Z,996.78
2023-09-20T09:02:12.524Z,996.79
2023-09-20T09:03:12.594Z,996.81
2023-09-20T09:04:12.555Z,996.80
2023-09-20T09:05:12.482Z,996.77
2023-09-20T09:06:12.461Z,996.78
2023-09-20T09:07:12.453Z,996.75
2023-09-20T09:08:12.440Z,996.75
2023-09-20T09:09:14.755Z,996.73
2023-09-20T09:10:12.395Z,996.73
2023-09-20T09:11:12.416Z,996.70
2023-09-20T09:12:12.365Z,996.69
2023-09-20T09:13:12.347Z,996.74
2023-09-20T09:14:12.364Z,996.70
2023-09-20T09:15:12.351Z,996.73
2023-09-20T09:16:12.368Z,996.74
2023-09-20T09:17:12.344Z,996.70
2023-09-20T09:18:12.418Z,996.73
2023-09-20T09:19:12.265Z,996.69
2023-09-20T09:20:12.307Z,996.73
2023-09-20T09:21:12.268Z,996.75
2023-09-20T09:22:12.253Z,996.74
2023-09-20T09:23:12.237Z,996.74
2023-09-20T09:24:12.202Z,996.71
2023-09-20T09:25:12.207Z,996.70
2023-09-20T09:26:12.205Z,996.69
2023-09-20T09:27:12.156Z,996.59
2023-09-20T09:28:12.149Z,996.59
2023-09-20T09:29:12.195Z,996.56
2023-09-20T09:30:12.147Z,996.54
2023-09-20T09:31:12.150Z,996.53
2023-09-20T09:32:12.253Z,996.49
2023-09-20T09:33:12.223Z,996.50
2023-09-20T09:34:12.085Z,996.49
2023-09-20T09:35:12.072Z,996.44
2023-09-20T09:36:12.286Z,996.42
2023-09-20T09:37:12.042Z,996.44
2023-09-20T09:38:12.047Z,996.42
2023-09-20T09:39:24.151Z,996.41
2023-09-20T09:40:13.030Z,996.43
2023-09-20T09:41:11.990Z,996.39
2023-09-20T09:42:11.961Z,996.38
2023-09-20T09:43:11.968Z,996.36
2023-09-20T09:44:11.992Z,996.39
2023-09-20T09:45:11.945Z,996.41
2023-09-20T09:46:11.959Z,996.42
2023-09-20T09:47:11.930Z,996.41
2023-09-20T09:48:12.006Z,996.40
2023-09-20T09:49:11.877Z,996.40
2023-09-20T09:50:12.052Z,996.37
2023-09-20T09:51:11.837Z,996.32
2023-09-20T09:52:11.832Z,996.31
2023-09-20T09:53:11.855Z,996.34
2023-09-20T09:54:12.200Z,996.36
2023-09-20T09:55:11.786Z,996.34
2023-09-20T09:56:11.826Z,996.32
2023-09-20T09:57:11.756Z,996.32
2023-09-20T09:58:11.761Z,996.34
2023-09-20T09:59:11.755Z,996.34
2023-09-20T10:00:11.843Z,996.28
2023-09-20T10:01:11.897Z,996.32
2023-09-20T10:02:11.790Z,996.31
2023-09-20T10:03:11.854Z,996.27
2023-09-20T10:04:11.778Z,996.30
2023-09-20T10:05:11.673Z,996.31
2023-09-20T10:06:11.723Z,996.29
2023-09-20T10:07:11.709Z,996.26
2023-09-20T10:08:13.796Z,996.26
2023-09-20T10:09:11.596Z,996.23
2023-09-20T10:10:11.582Z,996.24
2023-09-20T10:11:11.698Z,996.23
2023-09-20T10:12:11.574Z,996.21
2023-09-20T10:13:11.536Z,996.25
2023-09-20T10:14:11.553Z,996.22
2023-09-20T10:15:11.514Z,996.22
2023-09-20T10:16:11.585Z,996.20
2023-09-20T10:17:11.531Z,996.19
2023-09-20T10:18:11.554Z,996.22
2023-09-20T10:19:11.452Z,996.19
2023-09-20T10:20:11.473Z,996.22
2023-09-20T10:21:11.443Z,996.20
2023-09-20T10:22:11.426Z,996.19
2023-09-20T10:23:11.413Z,996.18
2023-09-20T10:24:11.398Z,996.17
2023-09-20T10:25:11.379Z,996.18
2023-09-20T10:26:11.464Z,996.16
2023-09-20T10:27:11.612Z,996.16
2023-09-20T10:28:11.341Z,996.15
2023-09-20T10:29:11.332Z,996.14
2023-09-20T10:30:11.358Z,996.12
2023-09-20T10:31:11.301Z,996.12
2023-09-20T10:32:11.290Z,996.06
2023-09-20T10:33:11.338Z,996.15
2023-09-20T10:34:11.334Z,996.05
2023-09-20T10:35:11.267Z,996.09
2023-09-20T10:36:11.246Z,996.08
2023-09-20T10:37:11.207Z,996.08
2023-09-20T10:38:11.226Z,996.12
2023-09-20T10:39:11.181Z,996.10
2023-09-20T10:40:11.188Z,996.07
2023-09-20T10:41:11.201Z,996.08
2023-09-20T10:42:11.145Z,996.09
2023-09-20T10:43:11.123Z,996.13
2023-09-20T10:44:11.134Z,996.16
2023-09-20T10:45:11.113Z,996.15
2023-09-20T10:46:11.299Z,996.12
2023-09-20T10:47:11.099Z,996.16
2023-09-20T10:48:11.134Z,996.12
2023-09-20T10:49:11.057Z,996.11
2023-09-20T10:50:11.061Z,996.09
2023-09-20T10:51:11.021Z,996.08
2023-09-20T10:52:11.014Z,996.11
2023-09-20T10:53:11.032Z,996.04
2023-09-20T10:54:10.989Z,996.02
2023-09-20T10:55:10.956Z,996.04
2023-09-20T10:56:10.989Z,996.01
2023-09-20T10:57:11.039Z,995.99
2023-09-20T10:58:10.925Z,995.98
2023-09-20T10:59:10.924Z,996.00
2023-09-20T11:00:10.899Z,995.98
2023-09-20T11:01:10.928Z,996.02
2023-09-20T11:02:11.028Z,996.00
2023-09-20T11:03:11.086Z,996.05
2023-09-20T11:04:10.854Z,996.05
2023-09-20T11:05:10.879Z,996.04
2023-09-20T11:06:10.970Z,996.01
2023-09-20T11:07:10.867Z,996.02
2023-09-20T11:08:10.809Z,995.98
2023-09-20T11:09:10.774Z,995.96
2023-09-20T11:10:10.758Z,995.92
2023-09-20T11:11:10.841Z,995.90
2023-09-20T11:12:10.761Z,995.92
2023-09-20T11:13:10.733Z,995.87
2023-09-20T11:14:10.817Z,995.91
2023-09-20T11:15:10.771Z,995.86
2023-09-20T11:16:10.883Z,995.86
2023-09-20T11:17:10.664Z,995.87
2023-09-20T11:18:10.819Z,995.84
2023-09-20T11:19:10.634Z,995.77
2023-09-20T11:20:10.622Z,995.73
2023-09-20T11:21:10.614Z,995.69
2023-09-20T11:22:10.699Z,995.69
2023-09-20T11:23:10.832Z,995.66
2023-09-20T11:24:10.614Z,995.67
2023-09-20T11:25:10.585Z,995.66
2023-09-20T11:26:10.542Z,995.70
2023-09-20T11:27:10.532Z,995.68
2023-09-20T11:28:10.523Z,995.78
2023-09-20T11:29:10.511Z,995.70
2023-09-20T11:30:10.607Z,995.64
2023-09-20T11:31:10.501Z,995.64
2023-09-20T11:32:10.528Z,995.66
2023-09-20T11:33:10.577Z,995.68
2023-09-20T11:34:10.433Z,995.65
2023-09-20T11:35:10.413Z,995.68
2023-09-20T11:36:10.406Z,995.66
2023-09-20T11:37:10.400Z,995.60
2023-09-20T11:38:10.380Z,995.56
2023-09-20T11:39:10.366Z,995.57
2023-09-20T11:40:10.375Z,995.57
2023-09-20T11:41:10.342Z,995.52
2023-09-20T11:42:10.334Z,995.48
2023-09-20T11:43:10.333Z,995.49
2023-09-20T11:44:10.312Z,995.49
2023-09-20T11:46:10.525Z,995.44
2023-09-20T11:47:10.253Z,995.39
2023-09-20T11:48:10.471Z,995.41
2023-09-20T11:49:10.233Z,995.38
2023-09-20T11:50:10.252Z,995.38
2023-09-20T11:51:10.213Z,995.36
2023-09-20T11:52:10.187Z,995.38
2023-09-20T11:53:10.235Z,995.29
2023-09-20T11:54:10.163Z,995.25
2023-09-20T11:55:10.161Z,995.28
2023-09-20T11:56:10.338Z,995.23
2023-09-20T11:57:10.120Z,995.23
2023-09-20T11:58:10.126Z,995.18
2023-09-20T11:59:10.107Z,995.18
2023-09-20T12:00:10.100Z,995.17
2023-09-20T12:01:10.227Z,995.17
2023-09-20T12:02:10.090Z,995.19
2023-09-20T12:03:10.120Z,995.15
2023-09-20T12:04:10.092Z,995.11
2023-09-20T12:05:10.023Z,995.16
2023-09-20T12:06:10.209Z,995.15
2023-09-20T12:07:09.987Z,995.10
2023-09-20T12:08:09.972Z,995.06
2023-09-20T12:09:09.952Z,995.08
2023-09-20T12:10:09.963Z,995.10
2023-09-20T12:11:09.955Z,995.10
2023-09-20T12:12:09.920Z,995.05
2023-09-20T12:13:09.935Z,994.99
2023-09-20T12:14:09.905Z,994.95
2023-09-20T12:15:09.888Z,994.95
2023-09-20T12:16:09.872Z,994.94
2023-09-20T12:17:09.848Z,994.92
2023-09-20T12:18:10.015Z,994.92
2023-09-20T12:19:09.864Z,994.95
2023-09-20T12:20:09.813Z,994.91
2023-09-20T12:21:09.812Z,994.86
2023-09-20T12:22:09.785Z,994.85
2023-09-20T12:23:09.775Z,994.88
2023-09-20T12:24:09.776Z,994.90
2023-09-20T12:25:09.737Z,994.79
2023-09-20T12:26:09.737Z,994.80
2023-09-20T12:27:09.711Z,994.75
2023-09-20T12:28:09.749Z,994.71
2023-09-20T12:29:09.714Z,994.74